sensor_id;sensor_type;location;lat;lon;timestamp;pressure;altitude;pressure_sealevel;temperature;humidity
72262;BME280;60173;52.112;8.648;2023-04-19T00:00:42;101831.75;;;8.92;75.31
72262;BME280;60173;52.112;8.648;2023-04-19T00:03:09;101826.19;;;8.59;75.33
72262;BME280;60173;52.112;8.648;2023-04-19T00:05:36;101823.16;;;8.56;75.34
72262;BME280;60173;52.112;8.648;2023-04-19T00:08:03;101816.38;;;8.53;74.64
72262;BME280;60173;52.112;8.648;2023-04-19T00:10:30;101820.63;;;8.49;75.00
72262;BME280;60173;52.112;8.648;2023-04-19T00:12:56;101814.84;;;8.41;75.26
72262;BME280;60173;52.112;8.648;2023-04-19T00:15:23;101808.34;;;8.42;75.43
72262;BME280;60173;52.112;8.648;2023-04-19T00:17:49;101820.13;;;8.52;74.80
72262;BME280;60173;52.112;8.648;2023-04-19T00:20:15;101815.22;;;8.49;74.54
72262;BME280;60173;52.112;8.648;2023-04-19T00:22:42;101808.00;;;8.38;74.45
72262;BME280;60173;52.112;8.648;2023-04-19T00:25:08;101816.38;;;8.53;73.81
72262;BME280;60173;52.112;8.648;2023-04-19T00:27:34;101812.09;;;8.57;74.00
72262;BME280;60173;52.112;8.648;2023-04-19T00:30:01;101809.88;;;8.54;73.99
72262;BME280;60173;52.112;8.648;2023-04-19T00:32:27;101816.00;;;8.45;74.07
72262;BME280;60173;52.112;8.648;2023-04-19T00:34:53;101811.06;;;8.42;73.79
72262;BME280;60173;52.112;8.648;2023-04-19T00:37:20;101811.31;;;8.40;73.84
72262;BME280;60173;52.112;8.648;2023-04-19T00:39:46;101813.69;;;8.36;73.60
72262;BME280;60173;52.112;8.648;2023-04-19T00:42:12;101817.16;;;7.98;75.27
72262;BME280;60173;52.112;8.648;2023-04-19T00:44:39;101812.16;;;8.07;75.41
72262;BME280;60173;52.112;8.648;2023-04-19T00:47:05;101808.41;;;7.91;75.66
72262;BME280;60173;52.112;8.648;2023-04-19T00:49:32;101808.31;;;7.86;75.78
72262;BME280;60173;52.112;8.648;2023-04-19T00:51:58;101806.44;;;7.86;75.97
72262;BME280;60173;52.112;8.648;2023-04-19T00:54:24;101809.50;;;7.90;75.95
72262;BME280;60173;52.112;8.648;2023-04-19T00:56:51;101811.44;;;7.78;76.24
72262;BME280;60173;52.112;8.648;2023-04-19T00:59:17;101802.41;;;7.89;75.06
72262;BME280;60173;52.112;8.648;2023-04-19T01:01:43;101805.72;;;7.74;75.35
72262;BME280;60173;52.112;8.648;2023-04-19T01:04:10;101798.34;;;7.69;74.85
72262;BME280;60173;52.112;8.648;2023-04-19T01:06:37;101800.13;;;7.81;74.14
72262;BME280;60173;52.112;8.648;2023-04-19T01:09:05;101802.59;;;7.82;74.40
72262;BME280;60173;52.112;8.648;2023-04-19T01:11:31;101801.88;;;7.87;74.73
72262;BME280;60173;52.112;8.648;2023-04-19T01:13:58;101800.28;;;7.57;75.65
72262;BME280;60173;52.112;8.648;2023-04-19T01:16:27;101795.66;;;7.69;75.71
72262;BME280;60173;52.112;8.648;2023-04-19T01:18:53;101794.25;;;7.67;76.02
72262;BME280;60173;52.112;8.648;2023-04-19T01:21:19;101793.91;;;7.63;76.06
72262;BME280;60173;52.112;8.648;2023-04-19T01:23:46;101796.19;;;7.55;76.82
72262;BME280;60173;52.112;8.648;2023-04-19T01:26:12;101796.09;;;7.66;76.30
72262;BME280;60173;52.112;8.648;2023-04-19T01:28:39;101802.94;;;7.52;76.16
72262;BME280;60173;52.112;8.648;2023-04-19T01:31:05;101795.16;;;7.56;75.37
72262;BME280;60173;52.112;8.648;2023-04-19T01:33:31;101797.91;;;7.44;75.36
72262;BME280;60173;52.112;8.648;2023-04-19T01:35:58;101793.00;;;7.58;74.39
72262;BME280;60173;52.112;8.648;2023-04-19T01:38:24;101800.13;;;7.47;74.40
72262;BME280;60173;52.112;8.648;2023-04-19T01:40:50;101796.53;;;7.41;73.72
72262;BME280;60173;52.112;8.648;2023-04-19T01:43:17;101797.81;;;7.39;73.47
72262;BME280;60173;52.112;8.648;2023-04-19T01:45:43;101792.75;;;7.42;72.95
72262;BME280;60173;52.112;8.648;2023-04-19T01:48:09;101785.88;;;7.52;71.59
72262;BME280;60173;52.112;8.648;2023-04-19T01:50:36;101786.91;;;7.34;70.67
72262;BME280;60173;52.112;8.648;2023-04-19T01:53:02;101788.72;;;7.28;70.13
72262;BME280;60173;52.112;8.648;2023-04-19T01:55:28;101787.19;;;7.32;69.97
72262;BME280;60173;52.112;8.648;2023-04-19T01:57:55;101783.41;;;7.33;69.79
72262;BME280;60173;52.112;8.648;2023-04-19T02:00:21;101784.13;;;7.29;68.22
72262;BME280;60173;52.112;8.648;2023-04-19T02:02:47;101777.56;;;7.24;66.52
72262;BME280;60173;52.112;8.648;2023-04-19T02:05:14;101776.34;;;7.15;66.22
72262;BME280;60173;52.112;8.648;2023-04-19T02:07:41;101774.94;;;7.13;65.48
72262;BME280;60173;52.112;8.648;2023-04-19T02:10:10;101776.72;;;7.07;63.61
72262;BME280;60173;52.112;8.648;2023-04-19T02:12:37;101778.94;;;7.10;63.00
72262;BME280;60173;52.112;8.648;2023-04-19T02:15:03;101772.88;;;7.03;62.27
72262;BME280;60173;52.112;8.648;2023-04-19T02:17:30;101781.44;;;7.00;61.22
72262;BME280;60173;52.112;8.648;2023-04-19T02:19:56;101781.91;;;6.97;60.97
72262;BME280;60173;52.112;8.648;2023-04-19T02:22:22;101783.97;;;6.90;60.00
72262;BME280;60173;52.112;8.648;2023-04-19T02:24:49;101786.34;;;6.86;58.74
72262;BME280;60173;52.112;8.648;2023-04-19T02:27:16;101783.75;;;6.79;58.69
72262;BME280;60173;52.112;8.648;2023-04-19T02:29:43;101785.19;;;6.70;58.08
72262;BME280;60173;52.112;8.648;2023-04-19T02:32:12;101777.44;;;6.74;56.63
72262;BME280;60173;52.112;8.648;2023-04-19T02:34:39;101788.03;;;6.64;56.74
72262;BME280;60173;52.112;8.648;2023-04-19T02:37:05;101778.16;;;6.69;55.62
72262;BME280;60173;52.112;8.648;2023-04-19T02:39:31;101781.72;;;6.58;55.60
72262;BME280;60173;52.112;8.648;2023-04-19T02:41:58;101787.13;;;6.58;56.05
72262;BME280;60173;52.112;8.648;2023-04-19T02:44:24;101782.88;;;6.62;55.86
72262;BME280;60173;52.112;8.648;2023-04-19T02:46:51;101787.72;;;6.60;54.20
72262;BME280;60173;52.112;8.648;2023-04-19T02:49:18;101789.81;;;6.58;54.72
72262;BME280;60173;52.112;8.648;2023-04-19T02:51:45;101787.84;;;6.42;54.71
72262;BME280;60173;52.112;8.648;2023-04-19T02:54:12;101790.44;;;6.48;54.80
72262;BME280;60173;52.112;8.648;2023-04-19T02:56:39;101794.78;;;6.38;54.94
72262;BME280;60173;52.112;8.648;2023-04-19T02:59:05;101782.25;;;6.31;55.22
72262;BME280;60173;52.112;8.648;2023-04-19T03:01:31;101781.44;;;6.31;55.25
72262;BME280;60173;52.112;8.648;2023-04-19T03:03:58;101784.34;;;6.29;55.07
72262;BME280;60173;52.112;8.648;2023-04-19T03:06:24;101789.16;;;6.27;55.45
72262;BME280;60173;52.112;8.648;2023-04-19T03:08:51;101787.06;;;6.18;55.96
72262;BME280;60173;52.112;8.648;2023-04-19T03:11:17;101794.69;;;6.09;56.39
72262;BME280;60173;52.112;8.648;2023-04-19T03:13:44;101777.34;;;6.05;56.59
72262;BME280;60173;52.112;8.648;2023-04-19T03:16:10;101785.78;;;5.97;56.75
72262;BME280;60173;52.112;8.648;2023-04-19T03:18:36;101775.06;;;5.90;56.90
72262;BME280;60173;52.112;8.648;2023-04-19T03:21:03;101790.56;;;5.83;57.57
72262;BME280;60173;52.112;8.648;2023-04-19T03:23:29;101789.88;;;5.87;57.94
72262;BME280;60173;52.112;8.648;2023-04-19T03:25:55;101787.59;;;5.73;57.97
72262;BME280;60173;52.112;8.648;2023-04-19T03:28:22;101789.94;;;5.57;57.85
72262;BME280;60173;52.112;8.648;2023-04-19T03:30:48;101788.66;;;5.60;57.94
72262;BME280;60173;52.112;8.648;2023-04-19T03:33:14;101788.91;;;5.58;58.05
72262;BME280;60173;52.112;8.648;2023-04-19T03:35:42;101791.59;;;5.58;58.24
72262;BME280;60173;52.112;8.648;2023-04-19T03:38:09;101791.66;;;5.40;58.63
72262;BME280;60173;52.112;8.648;2023-04-19T03:40:38;101786.84;;;5.30;58.91
72262;BME280;60173;52.112;8.648;2023-04-19T03:43:04;101781.44;;;5.30;58.99
72262;BME280;60173;52.112;8.648;2023-04-19T03:45:31;101784.75;;;5.32;58.82
72262;BME280;60173;52.112;8.648;2023-04-19T03:47:57;101784.38;;;5.40;59.32
72262;BME280;60173;52.112;8.648;2023-04-19T03:50:26;101783.69;;;5.33;59.10
72262;BME280;60173;52.112;8.648;2023-04-19T03:52:52;101790.06;;;5.20;59.64
72262;BME280;60173;52.112;8.648;2023-04-19T03:55:19;101783.09;;;5.31;60.17
72262;BME280;60173;52.112;8.648;2023-04-19T03:57:45;101784.56;;;5.15;60.42
72262;BME280;60173;52.112;8.648;2023-04-19T04:00:12;101783.69;;;5.03;61.12
72262;BME280;60173;52.112;8.648;2023-04-19T04:02:38;101784.72;;;4.90;61.17
72262;BME280;60173;52.112;8.648;2023-04-19T04:05:05;101785.88;;;4.94;61.35
72262;BME280;60173;52.112;8.648;2023-04-19T04:07:32;101785.84;;;4.83;61.42
72262;BME280;60173;52.112;8.648;2023-04-19T04:09:58;101787.72;;;4.82;61.97
72262;BME280;60173;52.112;8.648;2023-04-19T04:12:25;101795.78;;;4.82;62.65
72262;BME280;60173;52.112;8.648;2023-04-19T04:14:51;101792.66;;;4.67;62.79
72262;BME280;60173;52.112;8.648;2023-04-19T04:17:17;101787.75;;;4.64;63.55
72262;BME280;60173;52.112;8.648;2023-04-19T04:19:44;101806.50;;;4.52;63.42
72262;BME280;60173;52.112;8.648;2023-04-19T04:22:10;101804.31;;;4.42;64.09
72262;BME280;60173;52.112;8.648;2023-04-19T04:24:40;101812.25;;;4.56;64.21
72262;BME280;60173;52.112;8.648;2023-04-19T04:27:06;101809.84;;;4.47;64.16
72262;BME280;60173;52.112;8.648;2023-04-19T04:29:33;101802.41;;;4.49;64.81
72262;BME280;60173;52.112;8.648;2023-04-19T04:31:59;101809.56;;;4.37;64.73
72262;BME280;60173;52.112;8.648;2023-04-19T04:34:25;101809.25;;;4.27;65.65
72262;BME280;60173;52.112;8.648;2023-04-19T04:36:52;101809.97;;;4.16;65.72
72262;BME280;60173;52.112;8.648;2023-04-19T04:39:18;101814.34;;;4.35;65.54
72262;BME280;60173;52.112;8.648;2023-04-19T04:41:47;101808.97;;;4.17;65.44
72262;BME280;60173;52.112;8.648;2023-04-19T04:44:13;101810.59;;;4.36;65.54
72262;BME280;60173;52.112;8.648;2023-04-19T04:46:39;101813.34;;;4.11;65.85
72262;BME280;60173;52.112;8.648;2023-04-19T04:49:06;101805.88;;;4.13;65.89
72262;BME280;60173;52.112;8.648;2023-04-19T04:51:33;101811.25;;;4.13;66.13
72262;BME280;60173;52.112;8.648;2023-04-19T04:53:59;101818.63;;;3.99;66.55
72262;BME280;60173;52.112;8.648;2023-04-19T04:56:26;101814.34;;;4.17;66.50
72262;BME280;60173;52.112;8.648;2023-04-19T04:58:52;101823.34;;;4.04;66.97
72262;BME280;60173;52.112;8.648;2023-04-19T05:01:19;101824.44;;;3.96;67.31
72262;BME280;60173;52.112;8.648;2023-04-19T05:03:45;101828.41;;;3.94;67.19
72262;BME280;60173;52.112;8.648;2023-04-19T05:06:12;101828.78;;;3.97;67.19
72262;BME280;60173;52.112;8.648;2023-04-19T05:08:38;101830.56;;;3.85;67.48
72262;BME280;60173;52.112;8.648;2023-04-19T05:11:05;101828.84;;;3.91;67.41
72262;BME280;60173;52.112;8.648;2023-04-19T05:13:31;101822.78;;;3.95;66.96
72262;BME280;60173;52.112;8.648;2023-04-19T05:15:57;101827.84;;;3.85;67.65
72262;BME280;60173;52.112;8.648;2023-04-19T05:18:24;101830.31;;;3.87;67.99
72262;BME280;60173;52.112;8.648;2023-04-19T05:20:50;101818.09;;;3.91;67.88
72262;BME280;60173;52.112;8.648;2023-04-19T05:23:16;101828.72;;;4.04;67.82
72262;BME280;60173;52.112;8.648;2023-04-19T05:25:43;101820.06;;;3.77;68.22
72262;BME280;60173;52.112;8.648;2023-04-19T05:28:09;101817.81;;;3.74;67.94
72262;BME280;60173;52.112;8.648;2023-04-19T05:30:36;101820.50;;;3.74;68.22
72262;BME280;60173;52.112;8.648;2023-04-19T05:33:03;101826.81;;;3.86;68.08
72262;BME280;60173;52.112;8.648;2023-04-19T05:35:29;101818.69;;;3.93;68.43
72262;BME280;60173;52.112;8.648;2023-04-19T05:37:55;101823.88;;;4.13;67.62
72262;BME280;60173;52.112;8.648;2023-04-19T05:40:22;101820.72;;;3.97;67.84
72262;BME280;60173;52.112;8.648;2023-04-19T05:42:48;101808.19;;;4.10;67.82
72262;BME280;60173;52.112;8.648;2023-04-19T05:45:15;101814.38;;;4.10;67.75
72262;BME280;60173;52.112;8.648;2023-04-19T05:47:41;101827.56;;;3.93;68.47
72262;BME280;60173;52.112;8.648;2023-04-19T05:50:08;101824.66;;;3.95;68.36
72262;BME280;60173;52.112;8.648;2023-04-19T05:52:35;101823.81;;;4.19;68.36
72262;BME280;60173;52.112;8.648;2023-04-19T05:55:01;101822.41;;;4.17;67.66
72262;BME280;60173;52.112;8.648;2023-04-19T05:57:27;101820.16;;;4.50;66.11
72262;BME280;60173;52.112;8.648;2023-04-19T05:59:54;101819.00;;;4.46;66.42
72262;BME280;60173;52.112;8.648;2023-04-19T06:02:20;101819.34;;;4.50;66.45
72262;BME280;60173;52.112;8.648;2023-04-19T06:04:46;101818.06;;;5.19;65.10
72262;BME280;60173;52.112;8.648;2023-04-19T06:07:13;101816.91;;;5.69;63.55
72262;BME280;60173;52.112;8.648;2023-04-19T06:09:56;101821.44;;;6.22;61.21
72262;BME280;60173;52.112;8.648;2023-04-19T06:12:23;101826.81;;;5.99;62.60
72262;BME280;60173;52.112;8.648;2023-04-19T06:14:50;101822.81;;;6.60;60.83
72262;BME280;60173;52.112;8.648;2023-04-19T06:17:17;101822.09;;;5.82;61.94
72262;BME280;60173;52.112;8.648;2023-04-19T06:19:43;101830.16;;;6.65;60.66
72262;BME280;60173;52.112;8.648;2023-04-19T06:22:10;101822.94;;;6.30;61.11
72262;BME280;60173;52.112;8.648;2023-04-19T06:24:36;101821.91;;;6.83;58.86
72262;BME280;60173;52.112;8.648;2023-04-19T06:27:02;101822.00;;;6.88;59.36
72262;BME280;60173;52.112;8.648;2023-04-19T06:29:29;101824.34;;;6.21;60.80
72262;BME280;60173;52.112;8.648;2023-04-19T06:31:55;101820.44;;;5.81;62.23
72262;BME280;60173;52.112;8.648;2023-04-19T06:34:22;101828.09;;;5.84;62.24
72262;BME280;60173;52.112;8.648;2023-04-19T06:36:48;101827.94;;;5.79;62.90
72262;BME280;60173;52.112;8.648;2023-04-19T06:39:14;101828.41;;;5.76;63.16
72262;BME280;60173;52.112;8.648;2023-04-19T06:41:41;101837.41;;;5.58;63.30
72262;BME280;60173;52.112;8.648;2023-04-19T06:44:07;101836.69;;;5.51;63.57
72262;BME280;60173;52.112;8.648;2023-04-19T06:46:33;101833.56;;;5.78;63.97
72262;BME280;60173;52.112;8.648;2023-04-19T06:49:00;101834.00;;;5.63;63.62
72262;BME280;60173;52.112;8.648;2023-04-19T06:51:26;101838.56;;;5.51;64.08
72262;BME280;60173;52.112;8.648;2023-04-19T06:53:52;101838.75;;;5.91;63.12
72262;BME280;60173;52.112;8.648;2023-04-19T06:56:38;101839.88;;;5.60;64.49
72262;BME280;60173;52.112;8.648;2023-04-19T06:59:04;101835.88;;;5.51;63.71
72262;BME280;60173;52.112;8.648;2023-04-19T07:01:31;101836.38;;;5.29;64.16
72262;BME280;60173;52.112;8.648;2023-04-19T07:03:57;101833.34;;;5.37;63.77
72262;BME280;60173;52.112;8.648;2023-04-19T07:06:24;101836.50;;;5.64;63.16
72262;BME280;60173;52.112;8.648;2023-04-19T07:08:50;101836.84;;;5.68;63.24
72262;BME280;60173;52.112;8.648;2023-04-19T07:11:17;101834.75;;;5.82;63.29
72262;BME280;60173;52.112;8.648;2023-04-19T07:13:45;101831.19;;;5.70;63.12
72262;BME280;60173;52.112;8.648;2023-04-19T07:16:12;101836.09;;;6.03;62.90
72262;BME280;60173;52.112;8.648;2023-04-19T07:18:38;101835.63;;;6.06;63.28
72262;BME280;60173;52.112;8.648;2023-04-19T07:21:04;101834.81;;;5.94;63.28
72262;BME280;60173;52.112;8.648;2023-04-19T07:23:31;101829.84;;;5.91;63.29
72262;BME280;60173;52.112;8.648;2023-04-19T07:25:57;101824.84;;;5.94;63.11
72262;BME280;60173;52.112;8.648;2023-04-19T07:28:23;101821.06;;;6.19;63.37
72262;BME280;60173;52.112;8.648;2023-04-19T07:30:50;101812.97;;;6.54;62.56
72262;BME280;60173;52.112;8.648;2023-04-19T07:33:16;101812.28;;;6.11;62.58
72262;BME280;60173;52.112;8.648;2023-04-19T07:35:43;101817.91;;;5.98;62.89
72262;BME280;60173;52.112;8.648;2023-04-19T07:38:09;101818.16;;;6.20;62.60
72262;BME280;60173;52.112;8.648;2023-04-19T07:40:35;101810.88;;;6.09;63.13
72262;BME280;60173;52.112;8.648;2023-04-19T07:43:02;101823.06;;;6.23;63.08
72262;BME280;60173;52.112;8.648;2023-04-19T07:45:29;101821.06;;;6.42;61.48
72262;BME280;60173;52.112;8.648;2023-04-19T07:47:55;101813.28;;;6.57;61.88
72262;BME280;60173;52.112;8.648;2023-04-19T07:50:23;101809.88;;;6.62;61.71
72262;BME280;60173;52.112;8.648;2023-04-19T07:52:50;101809.00;;;6.73;61.44
72262;BME280;60173;52.112;8.648;2023-04-19T07:55:16;101806.28;;;6.33;60.69
72262;BME280;60173;52.112;8.648;2023-04-19T07:57:45;101810.09;;;7.01;60.90
72262;BME280;60173;52.112;8.648;2023-04-19T08:00:13;101811.63;;;6.68;60.81
72262;BME280;60173;52.112;8.648;2023-04-19T08:02:43;101808.22;;;6.61;60.64
72262;BME280;60173;52.112;8.648;2023-04-19T08:05:11;101805.84;;;6.76;60.06
72262;BME280;60173;52.112;8.648;2023-04-19T08:07:38;101798.97;;;7.43;59.47
72262;BME280;60173;52.112;8.648;2023-04-19T08:10:06;101793.41;;;7.66;58.87
72262;BME280;60173;52.112;8.648;2023-04-19T08:12:32;101799.13;;;7.36;59.13
72262;BME280;60173;52.112;8.648;2023-04-19T08:15:08;101788.72;;;6.99;58.54
72262;BME280;60173;52.112;8.648;2023-04-19T08:17:54;101788.34;;;7.53;58.09
72262;BME280;60173;52.112;8.648;2023-04-19T08:20:21;101781.53;;;7.67;57.26
72262;BME280;60173;52.112;8.648;2023-04-19T08:22:47;101769.72;;;7.40;57.09
72262;BME280;60173;52.112;8.648;2023-04-19T08:25:13;101773.19;;;7.52;56.22
72262;BME280;60173;52.112;8.648;2023-04-19T08:27:40;101773.97;;;7.86;55.33
72262;BME280;60173;52.112;8.648;2023-04-19T08:30:06;101772.03;;;7.82;54.85
72262;BME280;60173;52.112;8.648;2023-04-19T08:32:33;101767.50;;;8.04;53.26
72262;BME280;60173;52.112;8.648;2023-04-19T08:34:59;101769.03;;;8.17;55.16
72262;BME280;60173;52.112;8.648;2023-04-19T08:37:26;101767.72;;;8.03;54.29
72262;BME280;60173;52.112;8.648;2023-04-19T08:39:52;101765.28;;;8.40;55.87
72262;BME280;60173;52.112;8.648;2023-04-19T08:42:19;101760.19;;;8.44;55.30
72262;BME280;60173;52.112;8.648;2023-04-19T08:45:02;101763.03;;;8.54;53.15
72262;BME280;60173;52.112;8.648;2023-04-19T08:47:49;101748.16;;;9.05;53.12
72262;BME280;60173;52.112;8.648;2023-04-19T08:50:27;101745.59;;;8.06;53.09
72262;BME280;60173;52.112;8.648;2023-04-19T08:53:04;101737.84;;;9.08;52.12
72262;BME280;60173;52.112;8.648;2023-04-19T08:55:50;101737.97;;;9.18;50.81
72262;BME280;60173;52.112;8.648;2023-04-19T08:58:36;101727.84;;;9.08;51.40
72262;BME280;60173;52.112;8.648;2023-04-19T09:01:06;101723.91;;;8.94;49.85
72262;BME280;60173;52.112;8.648;2023-04-19T09:03:35;101727.41;;;8.40;50.14
72262;BME280;60173;52.112;8.648;2023-04-19T09:06:26;101739.13;;;8.73;50.25
72262;BME280;60173;52.112;8.648;2023-04-19T09:09:12;101729.69;;;9.02;49.05
72262;BME280;60173;52.112;8.648;2023-04-19T09:11:59;101717.09;;;9.18;48.43
72262;BME280;60173;52.112;8.648;2023-04-19T09:14:27;101729.03;;;8.90;45.27
72262;BME280;60173;52.112;8.648;2023-04-19T09:17:10;101719.69;;;9.03;44.74
72262;BME280;60173;52.112;8.648;2023-04-19T09:19:47;101721.06;;;9.05;43.74
72262;BME280;60173;52.112;8.648;2023-04-19T09:22:14;101711.09;;;8.84;44.04
72262;BME280;60173;52.112;8.648;2023-04-19T09:24:41;101716.47;;;9.11;43.77
72262;BME280;60173;52.112;8.648;2023-04-19T09:27:10;101704.34;;;9.19;43.92
72262;BME280;60173;52.112;8.648;2023-04-19T09:29:37;101700.56;;;9.57;44.09
72262;BME280;60173;52.112;8.648;2023-04-19T09:32:03;101711.78;;;9.71;43.76
72262;BME280;60173;52.112;8.648;2023-04-19T09:34:29;101692.28;;;9.74;44.61
72262;BME280;60173;52.112;8.648;2023-04-19T09:36:56;101700.38;;;9.69;43.54
72262;BME280;60173;52.112;8.648;2023-04-19T09:39:37;101698.63;;;9.95;44.06
72262;BME280;60173;52.112;8.648;2023-04-19T09:42:03;101698.13;;;9.98;43.15
72262;BME280;60173;52.112;8.648;2023-04-19T09:44:29;101691.63;;;9.99;43.29
72262;BME280;60173;52.112;8.648;2023-04-19T09:46:59;101696.94;;;9.79;42.52
72262;BME280;60173;52.112;8.648;2023-04-19T09:49:25;101695.66;;;9.96;42.68
72262;BME280;60173;52.112;8.648;2023-04-19T09:52:13;101685.72;;;10.17;42.14
72262;BME280;60173;52.112;8.648;2023-04-19T09:54:40;101670.91;;;10.46;42.10
72262;BME280;60173;52.112;8.648;2023-04-19T09:57:07;101683.47;;;10.62;41.86
72262;BME280;60173;52.112;8.648;2023-04-19T09:59:34;101676.50;;;10.18;42.05
72262;BME280;60173;52.112;8.648;2023-04-19T10:02:00;101667.56;;;10.23;42.00
72262;BME280;60173;52.112;8.648;2023-04-19T10:04:28;101651.94;;;10.56;41.88
72262;BME280;60173;52.112;8.648;2023-04-19T10:07:14;101656.06;;;11.04;41.22
72262;BME280;60173;52.112;8.648;2023-04-19T10:09:45;101651.31;;;10.28;40.04
72262;BME280;60173;52.112;8.648;2023-04-19T10:12:23;101658.13;;;10.41;40.86
72262;BME280;60173;52.112;8.648;2023-04-19T10:15:10;101647.56;;;10.45;40.70
72262;BME280;60173;52.112;8.648;2023-04-19T10:17:38;101647.28;;;10.41;39.45
72262;BME280;60173;52.112;8.648;2023-04-19T10:21:11;101620.44;;;10.75;40.11
72262;BME280;60173;52.112;8.648;2023-04-19T10:23:12;101619.25;;;10.25;38.34
72262;BME280;60173;52.112;8.648;2023-04-19T10:25:38;101632.69;;;10.88;39.57
72262;BME280;60173;52.112;8.648;2023-04-19T10:28:05;101626.44;;;11.03;37.21
72262;BME280;60173;52.112;8.648;2023-04-19T10:30:31;101626.44;;;11.03;37.33
72262;BME280;60173;52.112;8.648;2023-04-19T10:32:58;101625.06;;;11.26;37.87
72262;BME280;60173;52.112;8.648;2023-04-19T10:35:27;101623.97;;;11.27;38.48
72262;BME280;60173;52.112;8.648;2023-04-19T10:38:04;101624.25;;;11.25;36.63
72262;BME280;60173;52.112;8.648;2023-04-19T10:40:58;101623.97;;;11.01;35.58
72262;BME280;60173;52.112;8.648;2023-04-19T10:43:26;101620.69;;;11.35;35.62
72262;BME280;60173;52.112;8.648;2023-04-19T10:45:54;101610.00;;;11.74;35.65
72262;BME280;60173;52.112;8.648;2023-04-19T10:48:30;101610.00;;;11.74;35.12
72262;BME280;60173;52.112;8.648;2023-04-19T10:56:08;101622.59;;;11.29;35.28
72262;BME280;60173;52.112;8.648;2023-04-19T11:04:03;101595.25;;;11.86;36.63
72262;BME280;60173;52.112;8.648;2023-04-19T11:06:30;101577.50;;;11.08;35.42
72262;BME280;60173;52.112;8.648;2023-04-19T11:08:56;101585.63;;;11.23;36.56
72262;BME280;60173;52.112;8.648;2023-04-19T11:11:23;101575.81;;;11.27;35.16
72262;BME280;60173;52.112;8.648;2023-04-19T11:13:49;101579.28;;;11.53;36.01
72262;BME280;60173;52.112;8.648;2023-04-19T11:16:16;101566.31;;;12.05;36.92
72262;BME280;60173;52.112;8.648;2023-04-19T11:18:44;101551.34;;;12.03;36.88
72262;BME280;60173;52.112;8.648;2023-04-19T11:21:16;101571.44;;;11.42;34.72
72262;BME280;60173;52.112;8.648;2023-04-19T11:23:43;101560.22;;;11.59;35.50
72262;BME280;60173;52.112;8.648;2023-04-19T11:26:09;101563.94;;;11.83;36.29
72262;BME280;60173;52.112;8.648;2023-04-19T11:28:37;101563.88;;;11.28;34.42
72262;BME280;60173;52.112;8.648;2023-04-19T11:31:04;101562.44;;;11.51;35.17
72262;BME280;60173;52.112;8.648;2023-04-19T11:33:34;101535.84;;;11.28;34.28
72262;BME280;60173;52.112;8.648;2023-04-19T11:36:02;101538.69;;;11.72;34.66
72262;BME280;60173;52.112;8.648;2023-04-19T11:38:29;101521.28;;;11.68;34.43
72262;BME280;60173;52.112;8.648;2023-04-19T11:40:59;101503.09;;;12.13;35.75
72262;BME280;60173;52.112;8.648;2023-04-19T11:43:36;101511.72;;;12.26;36.28
72262;BME280;60173;52.112;8.648;2023-04-19T11:46:07;101502.03;;;12.43;35.89
72262;BME280;60173;52.112;8.648;2023-04-19T11:48:34;101496.06;;;12.07;35.20
72262;BME280;60173;52.112;8.648;2023-04-19T11:51:01;101499.38;;;12.38;35.85
72262;BME280;60173;52.112;8.648;2023-04-19T11:53:30;101496.84;;;12.47;35.22
72262;BME280;60173;52.112;8.648;2023-04-19T11:56:03;101487.34;;;12.74;33.86
72262;BME280;60173;52.112;8.648;2023-04-19T11:58:41;101489.94;;;12.20;33.94
72262;BME280;60173;52.112;8.648;2023-04-19T12:01:13;101487.44;;;12.63;35.70
72262;BME280;60173;52.112;8.648;2023-04-19T12:03:43;101472.56;;;12.80;34.16
72262;BME280;60173;52.112;8.648;2023-04-19T12:06:17;101469.63;;;13.00;33.20
72262;BME280;60173;52.112;8.648;2023-04-19T12:08:46;101470.28;;;12.87;35.29
72262;BME280;60173;52.112;8.648;2023-04-19T12:11:13;101474.75;;;12.78;34.58
72262;BME280;60173;52.112;8.648;2023-04-19T12:13:40;101470.72;;;12.41;35.15
72262;BME280;60173;52.112;8.648;2023-04-19T12:16:07;101464.66;;;12.78;34.00
72262;BME280;60173;52.112;8.648;2023-04-19T12:18:47;101461.69;;;12.75;33.58
72262;BME280;60173;52.112;8.648;2023-04-19T12:21:24;101472.25;;;13.10;31.52
72262;BME280;60173;52.112;8.648;2023-04-19T12:23:56;101468.63;;;12.91;32.93
72262;BME280;60173;52.112;8.648;2023-04-19T12:26:23;101450.63;;;12.90;31.29
72262;BME280;60173;52.112;8.648;2023-04-19T12:28:50;101441.97;;;13.55;33.12
72262;BME280;60173;52.112;8.648;2023-04-19T12:31:16;101429.88;;;13.61;30.20
72262;BME280;60173;52.112;8.648;2023-04-19T12:33:43;101440.69;;;13.28;30.48
72262;BME280;60173;52.112;8.648;2023-04-19T12:36:09;101436.59;;;12.78;31.21
72262;BME280;60173;52.112;8.648;2023-04-19T12:38:35;101434.84;;;12.63;30.81
72262;BME280;60173;52.112;8.648;2023-04-19T12:41:02;101421.16;;;13.16;31.86
72262;BME280;60173;52.112;8.648;2023-04-19T12:43:28;101419.09;;;13.32;31.56
72262;BME280;60173;52.112;8.648;2023-04-19T12:45:55;101423.97;;;13.11;32.36
72262;BME280;60173;52.112;8.648;2023-04-19T12:48:21;101411.94;;;12.88;30.19
72262;BME280;60173;52.112;8.648;2023-04-19T12:50:47;101399.53;;;12.77;30.62
72262;BME280;60173;52.112;8.648;2023-04-19T12:53:14;101415.59;;;12.78;31.06
72262;BME280;60173;52.112;8.648;2023-04-19T12:55:41;101411.06;;;12.93;29.46
72262;BME280;60173;52.112;8.648;2023-04-19T12:58:07;101412.91;;;12.49;30.37
72262;BME280;60173;52.112;8.648;2023-04-19T13:00:33;101400.16;;;12.93;31.46
72262;BME280;60173;52.112;8.648;2023-04-19T13:03:00;101404.47;;;12.75;30.76
72262;BME280;60173;52.112;8.648;2023-04-19T13:05:26;101404.22;;;12.95;32.62
72262;BME280;60173;52.112;8.648;2023-04-19T13:07:53;101390.06;;;13.17;32.67
72262;BME280;60173;52.112;8.648;2023-04-19T13:10:19;101380.47;;;13.20;31.76
72262;BME280;60173;52.112;8.648;2023-04-19T13:12:45;101388.66;;;13.20;31.38